createdAt,value
2022-12-23T00:01:26.163Z,3.30
2022-12-23T00:03:58.927Z,3.30
2022-12-23T00:06:27.441Z,3.30
2022-12-23T00:08:58.878Z,3.40
2022-12-23T00:11:28.987Z,3.40
2022-12-23T00:14:21.280Z,3.40
2022-12-23T00:16:51.436Z,3.40
2022-12-23T00:19:21.437Z,3.50
2022-12-23T00:21:49.891Z,3.50
2022-12-23T00:24:18.240Z,3.50
2022-12-23T00:26:46.696Z,3.60
2022-12-23T00:29:15.005Z,3.60
2022-12-23T00:31:43.482Z,3.60
2022-12-23T00:34:13.241Z,3.70
2022-12-23T00:36:43.106Z,3.70
2022-12-23T00:39:31.230Z,3.70
2022-12-23T00:42:16.881Z,3.70
2022-12-23T00:44:45.354Z,3.70
2022-12-23T00:47:35.115Z,3.70
2022-12-23T00:50:02.520Z,3.70
2022-12-23T00:52:32.169Z,3.70
2022-12-23T00:55:00.477Z,3.80
2022-12-23T00:57:28.899Z,3.80
2022-12-23T00:59:57.190Z,3.80
2022-12-23T01:02:43.284Z,3.90
2022-12-23T01:05:29.757Z,3.90
2022-12-23T01:07:59.486Z,3.90
2022-12-23T01:10:27.909Z,3.90
2022-12-23T01:12:56.409Z,3.80
2022-12-23T01:15:25.134Z,3.80
2022-12-23T01:17:53.725Z,3.90
2022-12-23T01:20:22.172Z,3.90
2022-12-23T01:22:50.744Z,3.90
2022-12-23T01:25:20.536Z,3.80
2022-12-23T01:27:48.972Z,3.80
2022-12-23T01:30:17.397Z,3.80
2022-12-23T01:32:45.841Z,3.80
2022-12-23T01:35:14.214Z,3.70
2022-12-23T01:37:42.552Z,3.70
2022-12-23T01:40:11.449Z,3.70
2022-12-23T01:42:46.619Z,3.70
2022-12-23T01:45:19.432Z,3.70
2022-12-23T01:47:53.137Z,3.70
2022-12-23T01:50:26.843Z,3.70
2022-12-23T01:53:07.849Z,3.60
2022-12-23T01:55:41.992Z,3.60
2022-12-23T01:58:14.850Z,3.60
2022-12-23T02:01:01.538Z,3.50
2022-12-23T02:03:53.057Z,3.60
2022-12-23T02:06:41.129Z,3.50
2022-12-23T02:09:19.801Z,3.50
2022-12-23T02:12:28.050Z,3.50
2022-12-23T02:15:50.770Z,3.50
2022-12-23T02:18:34.207Z,3.50
2022-12-23T02:21:31.421Z,3.50
2022-12-23T02:24:34.877Z,3.50
2022-12-23T02:27:24.686Z,3.50
2022-12-23T02:30:25.261Z,3.50
2022-12-23T02:33:32.219Z,3.50
2022-12-23T02:36:14.917Z,3.50
2022-12-23T02:38:52.992Z,3.50
2022-12-23T02:41:25.791Z,3.50
2022-12-23T02:44:01.220Z,3.50
2022-12-23T02:46:34.696Z,3.50
2022-12-23T02:49:09.296Z,3.50
2022-12-23T02:51:40.708Z,3.50
2022-12-23T02:54:12.523Z,3.50
2022-12-23T02:56:44.447Z,3.40
2022-12-23T02:59:16.201Z,3.40
2022-12-23T03:01:46.244Z,3.40
2022-12-23T03:04:16.787Z,3.40
2022-12-23T03:06:47.651Z,3.40
2022-12-23T03:09:25.332Z,3.40
2022-12-23T03:12:02.901Z,3.40
2022-12-23T03:14:53.630Z,3.40
2022-12-23T03:17:37.349Z,3.40
2022-12-23T03:20:15.383Z,3.40
2022-12-23T03:22:50.497Z,3.40
2022-12-23T03:25:22.887Z,3.40
2022-12-23T03:27:58.172Z,3.40
2022-12-23T03:30:27.412Z,3.30
2022-12-23T03:32:59.544Z,3.30
2022-12-23T03:35:34.685Z,3.40
2022-12-23T03:38:05.071Z,3.40
2022-12-23T03:40:38.387Z,3.30
2022-12-23T03:43:12.479Z,3.30
2022-12-23T03:45:46.306Z,3.30
2022-12-23T03:48:20.680Z,3.30
2022-12-23T03:50:54.501Z,3.30
2022-12-23T03:53:28.245Z,3.30
2022-12-23T03:56:00.483Z,3.30
2022-12-23T03:58:35.327Z,3.30
2022-12-23T04:01:11.113Z,3.30
2022-12-23T04:03:50.403Z,3.30
2022-12-23T04:06:21.404Z,3.30
2022-12-23T04:08:51.066Z,3.30
2022-12-23T04:11:19.502Z,3.30
2022-12-23T04:13:49.185Z,3.30
2022-12-23T04:16:17.857Z,3.30
2022-12-23T04:18:46.271Z,3.30
2022-12-23T04:21:14.651Z,3.30
2022-12-23T04:23:44.230Z,3.30
2022-12-23T04:26:12.580Z,3.30
2022-12-23T04:28:40.850Z,3.30
2022-12-23T04:31:09.211Z,3.40
2022-12-23T04:33:37.664Z,3.40
2022-12-23T04:36:06.484Z,3.40
2022-12-23T04:38:34.918Z,3.40
2022-12-23T04:41:04.803Z,3.40
2022-12-23T04:43:33.317Z,3.40
2022-12-23T04:46:01.671Z,3.40
2022-12-23T04:48:30.092Z,3.40
2022-12-23T04:50:58.382Z,3.40
2022-12-23T04:53:26.722Z,3.50
2022-12-23T04:55:55.130Z,3.40
2022-12-23T04:58:25.193Z,3.40
2022-12-23T05:01:02.771Z,3.40
2022-12-23T05:03:31.796Z,3.40
2022-12-23T05:06:00.285Z,3.40
2022-12-23T05:08:28.972Z,3.40
2022-12-23T05:10:57.343Z,3.40
2022-12-23T05:13:27.070Z,3.40
2022-12-23T05:15:56.624Z,3.40
2022-12-23T05:18:25.111Z,3.30
2022-12-23T05:20:53.397Z,3.30
2022-12-23T05:23:21.805Z,3.30
2022-12-23T05:25:52.896Z,3.30
2022-12-23T05:28:21.963Z,3.30
2022-12-23T05:30:58.335Z,3.30
2022-12-23T05:33:26.899Z,3.30
2022-12-23T05:35:55.270Z,3.30
2022-12-23T05:38:23.894Z,3.30
2022-12-23T05:40:52.889Z,3.30
2022-12-23T05:43:21.370Z,3.40
2022-12-23T05:45:51.766Z,3.40
2022-12-23T05:48:20.210Z,3.40
2022-12-23T05:50:51.919Z,3.30
2022-12-23T05:53:21.076Z,3.30
2022-12-23T05:55:49.534Z,3.40
2022-12-23T05:58:18.107Z,3.30
2022-12-23T06:00:46.527Z,3.30
2022-12-23T06:03:16.374Z,3.40
2022-12-23T06:05:44.959Z,3.40
2022-12-23T06:08:13.339Z,3.40
2022-12-23T06:10:41.681Z,3.40
2022-12-23T06:13:10.099Z,3.40
2022-12-23T06:15:38.482Z,3.40
2022-12-23T06:18:06.980Z,3.40
2022-12-23T06:20:36.652Z,3.40
2022-12-23T06:23:04.999Z,3.40
2022-12-23T06:25:33.384Z,3.40
2022-12-23T06:28:01.729Z,3.40
2022-12-23T06:30:30.127Z,3.40
2022-12-23T06:32:58.404Z,3.40
2022-12-23T06:35:26.864Z,3.50
2022-12-23T06:37:56.655Z,3.50
2022-12-23T06:40:25.014Z,3.40
2022-12-23T06:42:53.434Z,3.50
2022-12-23T06:45:21.819Z,3.40
2022-12-23T06:47:50.109Z,3.40
2022-12-23T06:50:18.539Z,3.40
2022-12-23T06:52:47.142Z,3.40
2022-12-23T06:55:16.938Z,3.40
2022-12-23T06:57:45.798Z,3.40
2022-12-23T07:00:15.310Z,3.40
2022-12-23T07:02:43.831Z,3.40
2022-12-23T07:05:12.328Z,3.40
2022-12-23T07:07:40.590Z,3.40
2022-12-23T07:10:09.883Z,3.40
2022-12-23T07:12:41.004Z,3.40
2022-12-23T07:15:12.251Z,3.50
2022-12-23T07:17:40.629Z,3.50
2022-12-23T07:20:09.931Z,3.50
2022-12-23T07:22:38.334Z,3.50
2022-12-23T07:25:07.390Z,3.50
2022-12-23T07:27:35.705Z,3.50
2022-12-23T07:30:05.961Z,3.50
2022-12-23T07:32:34.288Z,3.50
2022-12-23T07:35:02.620Z,3.50
2022-12-23T07:37:30.979Z,3.50
2022-12-23T07:40:02.215Z,3.50
2022-12-23T07:42:50.385Z,3.50
2022-12-23T07:45:20.164Z,3.50
2022-12-23T07:47:48.558Z,3.60
2022-12-23T07:50:17.371Z,3.60
2022-12-23T07:52:45.675Z,3.60
2022-12-23T07:55:14.289Z,3.60
2022-12-23T07:57:42.731Z,3.60
2022-12-23T08:00:14.254Z,3.60
2022-12-23T08:02:44.858Z,3.70
2022-12-23T08:05:14.370Z,3.70
2022-12-23T08:07:45.110Z,3.80
2022-12-23T08:10:14.015Z,3.80
2022-12-23T08:12:42.319Z,3.90
2022-12-23T08:15:11.025Z,3.90
2022-12-23T08:17:39.369Z,3.90
2022-12-23T08:20:09.980Z,4.00
2022-12-23T08:22:38.452Z,4.00
2022-12-23T08:25:07.380Z,4.00
2022-12-23T08:27:35.926Z,4.00
2022-12-23T08:30:04.823Z,3.90
2022-12-23T08:32:33.187Z,3.90
2022-12-23T08:35:01.589Z,3.90
2022-12-23T08:37:31.362Z,3.90
2022-12-23T08:39:59.844Z,3.90
2022-12-23T08:42:28.252Z,3.90
2022-12-23T08:44:56.570Z,3.90
2022-12-23T08:47:24.901Z,4.00
2022-12-23T08:49:53.392Z,4.00
2022-12-23T08:52:21.740Z,4.00
2022-12-23T08:54:51.485Z,4.10
2022-12-23T08:57:19.801Z,4.10
2022-12-23T08:59:48.266Z,4.10
2022-12-23T09:02:16.806Z,4.20
2022-12-23T09:04:45.418Z,4.20
2022-12-23T09:07:13.962Z,4.30
2022-12-23T09:09:42.254Z,4.40
2022-12-23T09:12:11.995Z,4.40
2022-12-23T09:14:40.407Z,4.40
2022-12-23T09:17:08.666Z,4.50
2022-12-23T09:19:36.979Z,4.50
2022-12-23T09:22:05.331Z,4.60
2022-12-23T09:24:33.976Z,4.60
2022-12-23T09:27:02.238Z,4.70
2022-12-23T09:29:31.891Z,4.80
2022-12-23T09:32:00.476Z,4.90
2022-12-23T09:34:29.021Z,5.00
2022-12-23T09:36:57.336Z,5.10
2022-12-23T09:39:25.775Z,5.30
2022-12-23T09:42:04.677Z,5.40
2022-12-23T09:45:01.391Z,5.50
2022-12-23T09:47:31.707Z,5.50
2022-12-23T09:50:04.021Z,5.50
2022-12-23T09:52:41.660Z,5.60
2022-12-23T09:55:11.817Z,5.60
2022-12-23T09:57:49.459Z,5.70
2022-12-23T10:00:20.193Z,5.70
2022-12-23T10:03:02.626Z,5.70
2022-12-23T10:05:40.806Z,5.60
2022-12-23T10:08:13.798Z,5.60
2022-12-23T10:10:46.284Z,5.60
2022-12-23T10:13:25.007Z,5.60
2022-12-23T10:15:59.656Z,5.60
2022-12-23T10:18:36.530Z,5.60
2022-12-23T10:21:08.998Z,5.60
2022-12-23T10:23:39.807Z,5.50
2022-12-23T10:26:18.669Z,5.50
2022-12-23T10:28:47.020Z,5.60
2022-12-23T10:31:39.844Z,5.60
2022-12-23T10:34:16.192Z,5.60
2022-12-23T10:36:53.392Z,5.70
2022-12-23T10:39:31.222Z,5.70
2022-12-23T10:42:10.135Z,5.70
2022-12-23T10:44:54.059Z,5.80
2022-12-23T10:47:32.492Z,5.80
2022-12-23T10:50:16.049Z,5.80
2022-12-23T10:52:47.069Z,5.80
2022-12-23T10:55:31.322Z,5.90
2022-12-23T10:58:08.010Z,5.90
2022-12-23T11:00:40.195Z,5.90
2022-12-23T11:03:19.198Z,5.90
2022-12-23T11:05:50.673Z,5.80
2022-12-23T11:08:19.931Z,5.80
2022-12-23T11:10:49.267Z,5.80
2022-12-23T11:13:35.642Z,5.80
2022-12-23T11:16:19.509Z,5.90
2022-12-23T11:19:01.860Z,5.90
2022-12-23T11:21:32.162Z,5.90
2022-12-23T11:24:17.108Z,5.90
2022-12-23T11:26:46.858Z,5.90
2022-12-23T11:29:23.256Z,5.90
2022-12-23T11:31:52.524Z,6.00
2022-12-23T11:34:25.093Z,6.00
2022-12-23T11:36:58.760Z,6.00
2022-12-23T11:39:34.156Z,6.00
2022-12-23T11:42:12.489Z,6.00
2022-12-23T11:44:43.775Z,6.10
2022-12-23T11:47:25.148Z,6.10
2022-12-23T11:49:56.748Z,6.20
2022-12-23T11:52:26.390Z,6.20
2022-12-23T11:54:56.294Z,6.20
2022-12-23T11:57:34.558Z,6.30
2022-12-23T12:00:18.999Z,6.20
2022-12-23T12:02:49.243Z,6.20
2022-12-23T12:05:26.681Z,6.20
2022-12-23T12:08:01.190Z,6.20
2022-12-23T12:10:32.724Z,6.10
2022-12-23T12:13:04.951Z,6.10
2022-12-23T12:15:38.482Z,6.20
2022-12-23T12:18:11.257Z,6.10
2022-12-23T12:20:44.363Z,6.10
2022-12-23T12:23:18.544Z,6.10
2022-12-23T12:25:53.040Z,6.10
2022-12-23T12:28:25.132Z,6.10
2022-12-23T12:30:58.960Z,6.10
2022-12-23T12:33:33.668Z,6.10
2022-12-23T12:36:12.610Z,6.10
2022-12-23T12:38:41.640Z,6.10
2022-12-23T12:41:17.504Z,6.10
2022-12-23T12:43:52.329Z,6.10
2022-12-23T12:46:31.955Z,6.10
2022-12-23T12:49:06.639Z,6.00
2022-12-23T12:51:44.699Z,6.00
2022-12-23T12:54:22.469Z,6.00
2022-12-23T12:56:53.456Z,6.00
2022-12-23T12:59:26.900Z,5.90
2022-12-23T13:02:12.818Z,5.90
2022-12-23T13:05:20.672Z,5.90
2022-12-23T13:08:04.470Z,5.90
2022-12-23T13:10:43.888Z,5.80
2022-12-23T13:13:24.789Z,5.80
2022-12-23T13:16:00.580Z,5.80
2022-12-23T13:18:39.662Z,5.70
2022-12-23T13:21:13.429Z,5.70
2022-12-23T13:23:53.132Z,5.70
2022-12-23T13:26:32.164Z,5.70
2022-12-23T13:29:17.583Z,5.60
2022-12-23T13:31:54.938Z,5.60
2022-12-23T13:34:34.063Z,5.60
2022-12-23T13:37:17.093Z,5.60
2022-12-23T13:39:57.035Z,5.60
2022-12-23T13:42:31.688Z,5.50
2022-12-23T13:45:01.340Z,5.50
2022-12-23T13:47:45.038Z,5.50
2022-12-23T13:50:20.206Z,5.50
2022-12-23T13:53:03.431Z,5.50
2022-12-23T13:55:56.318Z,5.50
2022-12-23T13:58:26.917Z,5.50
2022-12-23T14:00:59.897Z,5.40
2022-12-23T14:03:35.632Z,5.40
2022-12-23T14:06:42.147Z,5.40
2022-12-23T14:09:16.173Z,5.40
2022-12-23T14:11:46.219Z,5.30
2022-12-23T14:14:23.135Z,5.30
2022-12-23T14:16:59.691Z,5.30
2022-12-23T14:19:43.482Z,5.30
2022-12-23T14:22:35.601Z,5.30
2022-12-23T14:25:34.540Z,5.20
2022-12-23T14:28:14.660Z,5.20
2022-12-23T14:30:45.956Z,5.20
2022-12-23T14:33:24.911Z,5.20
2022-12-23T14:35:58.587Z,5.20
2022-12-23T14:38:31.972Z,5.20
2022-12-23T14:41:23.960Z,5.20
2022-12-23T14:44:02.870Z,5.20
2022-12-23T14:46:59.039Z,5.20
2022-12-23T14:49:48.636Z,5.20
2022-12-23T14:52:59.069Z,5.20
2022-12-23T14:55:47.205Z,5.10
2022-12-23T14:58:37.190Z,5.10
2022-12-23T15:01:12.964Z,5.10
2022-12-23T15:03:49.960Z,5.10
2022-12-23T15:06:28.477Z,5.10
2022-12-23T15:08:57.993Z,5.10
2022-12-23T15:11:30.052Z,5.10
2022-12-23T15:14:01.105Z,5.10
2022-12-23T15:16:34.754Z,5.00
2022-12-23T15:19:14.532Z,5.00
2022-12-23T15:21:46.203Z,5.00
2022-12-23T15:24:18.792Z,5.00
2022-12-23T15:27:24.745Z,5.00
2022-12-23T15:29:42.330Z,5.00
2022-12-23T15:32:12.701Z,4.90
2022-12-23T15:34:42.278Z,4.90
2022-12-23T15:37:12.812Z,4.90
2022-12-23T15:39:45.136Z,4.90
2022-12-23T15:42:23.198Z,5.00
2022-12-23T15:44:52.313Z,4.90
2022-12-23T15:47:31.035Z,4.90
2022-12-23T15:50:00.580Z,4.90
2022-12-23T15:52:30.781Z,4.90
2022-12-23T15:55:03.867Z,4.90
2022-12-23T15:57:32.648Z,4.90
2022-12-23T16:00:02.044Z,4.90
2022-12-23T16:03:02.938Z,4.90
2022-12-23T16:05:34.690Z,4.90
2022-12-23T16:08:28.898Z,4.80
2022-12-23T16:11:12.779Z,4.90
2022-12-23T16:13:46.740Z,4.80
2022-12-23T16:16:35.088Z,4.80
2022-12-23T16:19:04.920Z,4.80
2022-12-23T16:21:36.170Z,4.80
2022-12-23T16:24:09.711Z,4.80
2022-12-23T16:26:42.416Z,4.80
2022-12-23T16:29:12.487Z,4.80
2022-12-23T16:31:47.851Z,4.70
2022-12-23T16:34:21.078Z,4.70
2022-12-23T16:36:49.487Z,4.70
2022-12-23T16:39:21.697Z,4.70
2022-12-23T16:41:50.572Z,4.70
2022-12-23T16:44:19.120Z,4.60
2022-12-23T16:46:50.559Z,4.70
2022-12-23T16:49:28.014Z,4.60
2022-12-23T16:52:00.012Z,4.60
2022-12-23T16:54:28.448Z,4.70
2022-12-23T16:56:56.924Z,4.60
2022-12-23T16:59:26.049Z,4.70
2022-12-23T17:02:01.236Z,4.70
2022-12-23T17:04:32.957Z,4.70
2022-12-23T17:07:01.468Z,4.70
2022-12-23T17:09:29.812Z,4.60
2022-12-23T17:11:58.298Z,4.60
2022-12-23T17:14:27.065Z,4.60
2022-12-23T17:16:55.544Z,4.60
2022-12-23T17:19:29.335Z,4.50
2022-12-23T17:22:02.723Z,4.50
2022-12-23T17:24:31.393Z,4.50
2022-12-23T17:26:59.833Z,4.50
2022-12-23T17:29:28.379Z,4.50
2022-12-23T17:31:56.821Z,4.50
2022-12-23T17:34:26.112Z,4.40
2022-12-23T17:36:54.782Z,4.40
2022-12-23T17:39:24.431Z,4.40
2022-12-23T17:41:52.982Z,4.40
2022-12-23T17:44:21.359Z,4.40
2022-12-23T17:46:49.613Z,4.30
2022-12-23T17:49:17.945Z,4.30
2022-12-23T17:51:46.313Z,4.30
2022-12-23T17:54:23.118Z,4.30
2022-12-23T17:56:53.525Z,4.20
2022-12-23T17:59:22.183Z,4.20
2022-12-23T18:01:50.998Z,4.20
2022-12-23T18:04:19.617Z,4.20
2022-12-23T18:06:48.087Z,4.20
2022-12-23T18:09:16.859Z,4.20
2022-12-23T18:11:47.724Z,4.10
2022-12-23T18:14:20.880Z,4.10
2022-12-23T18:16:49.275Z,4.10
2022-12-23T18:19:20.781Z,4.10
2022-12-23T18:21:49.954Z,4.10
2022-12-23T18:24:18.503Z,4.10
2022-12-23T18:26:47.638Z,4.10
2022-12-23T18:29:17.491Z,4.10
2022-12-23T18:31:52.162Z,4.10
2022-12-23T18:34:21.564Z,4.10
2022-12-23T18:36:51.996Z,4.10
2022-12-23T18:39:21.204Z,4.10
2022-12-23T18:41:49.824Z,4.10
2022-12-23T18:44:21.508Z,4.10
2022-12-23T18:46:50.741Z,4.10
2022-12-23T18:49:19.192Z,4.10
2022-12-23T18:51:47.614Z,4.10
2022-12-23T18:54:17.003Z,4.10
2022-12-23T18:56:45.627Z,4.10
2022-12-23T18:59:21.369Z,4.10
2022-12-23T19:01:57.339Z,4.10
2022-12-23T19:04:25.991Z,4.10
2022-12-23T19:06:55.433Z,4.10
2022-12-23T19:09:25.551Z,4.10
2022-12-23T19:11:54.966Z,4.10
2022-12-23T19:14:23.437Z,4.10
2022-12-23T19:16:52.739Z,4.10
2022-12-23T19:19:23.140Z,4.20
2022-12-23T19:21:51.720Z,4.20
2022-12-23T19:24:20.084Z,4.20
2022-12-23T19:26:48.596Z,4.20
2022-12-23T19:29:17.151Z,4.20
2022-12-23T19:31:45.510Z,4.20
2022-12-23T19:34:15.604Z,4.20
2022-12-23T19:36:45.973Z,4.30
2022-12-23T19:39:16.759Z,4.30
2022-12-23T19:41:45.894Z,4.30
2022-12-23T19:44:14.362Z,4.30
2022-12-23T19:46:43.069Z,4.30
2022-12-23T19:49:19.180Z,4.30
2022-12-23T19:51:49.621Z,4.30
2022-12-23T19:54:18.439Z,4.30
2022-12-23T19:56:46.963Z,4.30
2022-12-23T19:59:15.367Z,4.30
2022-12-23T20:01:43.903Z,4.40
2022-12-23T20:04:12.627Z,4.40
2022-12-23T20:06:42.425Z,4.40
2022-12-23T20:09:14.018Z,4.40
2022-12-23T20:11:44.458Z,4.50
2022-12-23T20:14:15.325Z,4.40
2022-12-23T20:16:44.086Z,4.50
2022-12-23T20:19:12.648Z,4.50
2022-12-23T20:21:41.150Z,4.50
2022-12-23T20:24:11.417Z,4.50
2022-12-23T20:26:40.046Z,4.50
2022-12-23T20:29:08.783Z,4.50
2022-12-23T20:31:38.735Z,4.50
2022-12-23T20:34:09.384Z,4.50
2022-12-23T20:36:38.290Z,4.50
2022-12-23T20:39:07.042Z,4.50
2022-12-23T20:41:36.770Z,4.50
2022-12-23T20:46:54.414Z,4.50
2022-12-23T20:49:22.807Z,4.50
2022-12-23T20:51:51.156Z,4.50
2022-12-23T20:54:19.537Z,4.50
2022-12-23T20:56:49.169Z,4.40
2022-12-23T20:59:17.636Z,4.40
2022-12-23T21:01:46.453Z,4.40
2022-12-23T21:04:16.539Z,4.50
2022-12-23T21:06:46.028Z,4.50
2022-12-23T21:09:15.893Z,4.50
2022-12-23T21:11:46.852Z,4.50
2022-12-23T21:14:17.032Z,4.50
2022-12-23T21:16:46.065Z,4.50
2022-12-23T21:19:16.917Z,4.50
2022-12-23T21:21:45.993Z,4.50
2022-12-23T21:24:15.062Z,4.50
2022-12-23T21:26:43.875Z,4.50
2022-12-23T21:29:13.341Z,4.50
2022-12-23T21:31:43.548Z,4.50
2022-12-23T21:34:14.381Z,4.60
2022-12-23T21:36:43.786Z,4.60
2022-12-23T21:39:15.960Z,4.60
2022-12-23T21:41:44.392Z,4.60
2022-12-23T21:44:15.022Z,4.50
2022-12-23T21:46:44.890Z,4.60
2022-12-23T21:49:13.457Z,4.50
2022-12-23T21:51:42.245Z,4.50
2022-12-23T21:54:11.211Z,4.50
2022-12-23T21:56:40.597Z,4.50
2022-12-23T21:59:11.869Z,4.50
2022-12-23T22:01:40.593Z,4.50
2022-12-23T22:04:10.300Z,4.50
2022-12-23T22:06:41.275Z,4.50
2022-12-23T22:09:11.569Z,4.50
2022-12-23T22:11:40.276Z,4.50
2022-12-23T22:14:11.393Z,4.50
2022-12-23T22:16:39.793Z,4.50
2022-12-23T22:19:10.458Z,4.40
2022-12-23T22:21:39.908Z,4.40
2022-12-23T22:24:08.801Z,4.40
2022-12-23T22:26:37.489Z,4.40
2022-12-23T22:29:07.470Z,4.40
2022-12-23T22:31:40.093Z,4.40
2022-12-23T22:34:13.546Z,4.50
2022-12-23T22:36:42.032Z,4.40
2022-12-23T22:39:16.104Z,4.50
2022-12-23T22:41:48.553Z,4.50
2022-12-23T22:44:17.375Z,4.50
2022-12-23T22:46:45.879Z,4.50
2022-12-23T22:49:16.742Z,4.50
2022-12-23T22:51:45.600Z,4.50
2022-12-23T22:54:14.330Z,4.50
2022-12-23T22:56:42.760Z,4.60
2022-12-23T22:59:20.651Z,4.60
2022-12-23T23:01:50.254Z,4.60
2022-12-23T23:04:19.996Z,4.60
2022-12-23T23:06:48.387Z,4.60
2022-12-23T23:09:20.254Z,4.60
2022-12-23T23:11:49.289Z,4.60
2022-12-23T23:14:18.750Z,4.60
2022-12-23T23:16:47.399Z,4.60
2022-12-23T23:19:16.516Z,4.60
2022-12-23T23:21:46.196Z,4.60
2022-12-23T23:24:14.716Z,4.60
2022-12-23T23:26:43.080Z,4.60
2022-12-23T23:29:11.448Z,4.60
2022-12-23T23:31:42.394Z,4.60
2022-12-23T23:34:11.969Z,4.60
2022-12-23T23:36:40.631Z,4.60
2022-12-23T23:39:12.288Z,4.60
2022-12-23T23:41:41.423Z,4.60
2022-12-23T23:44:10.397Z,4.70
2022-12-23T23:46:39.466Z,4.60
2022-12-23T23:49:08.630Z,4.60
2022-12-23T23:51:36.921Z,4.60
2022-12-23T23:54:05.353Z,4.60
2022-12-23T23:56:38.756Z,4.60
2022-12-23T23:59:08.827Z,4.60
